Nahariyya, Israel
Current Conditions -  °F | °C
As of 8:50 AM on Sunday 26 Oct 2014 (Local Time) from LLHA Reporting Station
Clear Clear  
Wind Chill: 73°   Ceiling: Unl
Heat Index: 73°   Visibility: 6mi
Dew Point: 52°   Wind: 3mph
Humidity: 47%   Direction: NA
Pressure: 30"   Gusts: NA
Location:  33.03°N, 35.1°E
Report Text: LLHA 260550Z VRB03KT CAVOK 23/11 Q1016
Loading
Personal Weather Stations






























Interactive Weather Map
Tropical Storm Tracking
New forecast layout! Learn more

10-Day Weather Forecast

Advertisements
Track Severe Weather on mobile